createdAt,value
2018-09-12T00:00:02.206Z,5.93
2018-09-12T00:02:33.972Z,6.87
2018-09-12T00:05:02.248Z,7.13
2018-09-12T00:07:30.458Z,7.37
2018-09-12T00:10:01.856Z,6.33
2018-09-12T00:12:30.086Z,6.10
2018-09-12T00:14:58.346Z,6.60
2018-09-12T00:17:26.507Z,5.00
2018-09-12T00:19:54.726Z,5.10
2018-09-12T00:22:22.897Z,7.60
2018-09-12T00:24:51.378Z,5.57
2018-09-12T00:27:19.562Z,6.87
2018-09-12T00:29:47.846Z,5.97
2018-09-12T00:32:16.157Z,5.67
2018-09-12T00:34:44.338Z,5.77
2018-09-12T00:37:12.470Z,7.50
2018-09-12T00:39:40.712Z,7.33
2018-09-12T00:42:08.920Z,6.10
2018-09-12T00:44:37.054Z,6.43
2018-09-12T00:47:05.261Z,10.60
2018-09-12T00:49:33.463Z,7.77
2018-09-12T00:52:01.800Z,8.47
2018-09-12T00:54:29.990Z,7.03
2018-09-12T00:56:58.098Z,8.03
2018-09-12T00:59:26.388Z,6.10
2018-09-12T01:01:54.564Z,10.10
2018-09-12T01:04:22.810Z,6.50
2018-09-12T01:06:51.181Z,7.40
2018-09-12T01:09:19.442Z,7.73
2018-09-12T01:11:47.632Z,7.93
2018-09-12T01:14:15.804Z,9.17
2018-09-12T01:16:44.126Z,10.53
2018-09-12T01:19:12.330Z,9.17
2018-09-12T01:21:40.520Z,7.57
2018-09-12T01:24:08.654Z,7.20
2018-09-12T01:26:36.792Z,8.20
2018-09-12T01:29:05.020Z,7.47
2018-09-12T01:31:33.206Z,6.87
2018-09-12T01:34:01.314Z,9.23
2018-09-12T01:36:29.565Z,8.83
2018-09-12T01:38:57.702Z,7.93
2018-09-12T01:41:25.933Z,8.17
2018-09-12T01:43:54.052Z,7.70
2018-09-12T01:46:22.333Z,11.20
2018-09-12T01:48:50.550Z,5.97
2018-09-12T01:51:18.707Z,7.17
2018-09-12T01:53:46.983Z,10.37
2018-09-12T01:56:15.304Z,10.10
2018-09-12T01:58:43.430Z,6.90
2018-09-12T02:01:11.668Z,9.10
2018-09-12T02:03:40.008Z,8.53
2018-09-12T02:06:08.388Z,6.50
2018-09-12T02:08:36.596Z,7.47
2018-09-12T02:11:04.816Z,6.57
2018-09-12T02:13:33.092Z,10.70
2018-09-12T02:16:01.327Z,7.50
2018-09-12T02:18:29.535Z,11.00
2018-09-12T02:20:57.769Z,10.50
2018-09-12T02:23:26.071Z,8.37
2018-09-12T02:25:54.250Z,6.67
2018-09-12T02:28:22.427Z,6.30
2018-09-12T02:30:51.177Z,9.57
2018-09-12T02:33:19.470Z,6.27
2018-09-12T02:35:53.106Z,7.27
2018-09-12T02:38:21.300Z,7.30
2018-09-12T02:40:49.619Z,10.50
2018-09-12T02:43:17.887Z,7.50
2018-09-12T02:45:46.104Z,8.87
2018-09-12T02:48:14.306Z,8.10
2018-09-12T02:50:42.576Z,8.97
2018-09-12T02:53:10.926Z,7.83
2018-09-12T02:55:40.411Z,8.23
2018-09-12T02:58:08.610Z,6.80
2018-09-12T03:00:36.830Z,7.73
2018-09-12T03:03:05.054Z,8.73
2018-09-12T03:05:33.252Z,7.27
2018-09-12T03:08:01.762Z,6.07
2018-09-12T03:10:29.910Z,8.53
2018-09-12T03:12:58.044Z,6.87
2018-09-12T03:15:26.298Z,11.30
2018-09-12T03:17:54.628Z,7.83
2018-09-12T03:20:22.833Z,8.43
2018-09-12T03:22:50.932Z,6.83
2018-09-12T03:25:19.098Z,7.20
2018-09-12T03:27:47.869Z,9.77
2018-09-12T03:30:16.049Z,9.17
2018-09-12T03:32:44.221Z,6.13
2018-09-12T03:35:12.630Z,7.77
2018-09-12T03:37:40.973Z,9.53
2018-09-12T03:40:09.126Z,10.07
2018-09-12T03:42:37.285Z,9.80
2018-09-12T03:45:05.810Z,12.87
2018-09-12T03:47:34.079Z,8.87
2018-09-12T03:50:02.237Z,11.60
2018-09-12T03:52:30.397Z,6.93
2018-09-12T03:54:58.642Z,8.57
2018-09-12T03:57:26.855Z,8.20
2018-09-12T03:59:55.073Z,10.73
2018-09-12T04:02:23.295Z,10.33
2018-09-12T04:04:51.645Z,9.47
2018-09-12T04:07:20.035Z,11.27
2018-09-12T04:09:48.190Z,8.77
2018-09-12T04:12:16.350Z,12.20
2018-09-12T04:14:44.616Z,10.17
2018-09-12T04:17:12.833Z,10.20
2018-09-12T04:19:44.110Z,9.97
2018-09-12T04:22:12.305Z,12.37
2018-09-12T04:24:44.132Z,9.27
2018-09-12T04:27:12.359Z,10.03
2018-09-12T04:29:46.573Z,11.83
2018-09-12T04:32:14.791Z,8.80
2018-09-12T04:34:43.117Z,14.03
2018-09-12T04:37:11.311Z,14.53
2018-09-12T04:39:46.371Z,10.57
2018-09-12T04:42:14.576Z,8.80
2018-09-12T04:44:42.780Z,10.20
2018-09-12T04:47:11.048Z,17.53
2018-09-12T04:49:39.478Z,12.73
2018-09-12T04:52:07.695Z,12.27
2018-09-12T04:54:35.885Z,11.70
2018-09-12T04:57:04.117Z,14.10
2018-09-12T04:59:32.673Z,11.67
2018-09-12T05:02:00.855Z,12.53
2018-09-12T05:04:29.000Z,11.87
2018-09-12T05:06:57.125Z,13.57
2018-09-12T05:09:25.474Z,12.57
2018-09-12T05:11:53.739Z,11.30
2018-09-12T05:14:21.880Z,12.40
2018-09-12T05:16:50.085Z,13.57
2018-09-12T05:19:18.864Z,12.80
2018-09-12T05:21:47.130Z,10.43
2018-09-12T05:24:16.698Z,11.40
2018-09-12T05:26:44.973Z,12.03
2018-09-12T05:29:13.179Z,12.27
2018-09-12T05:31:41.404Z,11.30
2018-09-12T05:34:09.577Z,10.27
2018-09-12T05:36:38.032Z,14.23
2018-09-12T05:39:07.952Z,8.93
2018-09-12T05:41:36.179Z,10.77
2018-09-12T05:44:04.621Z,8.90
2018-09-12T05:46:33.505Z,10.40
2018-09-12T05:49:01.910Z,8.03
2018-09-12T05:51:30.081Z,7.43
2018-09-12T05:53:58.439Z,10.90
2018-09-12T05:56:26.592Z,9.90
2018-09-12T05:58:54.833Z,10.30
2018-09-12T06:01:23.133Z,8.77
2018-09-12T06:03:51.942Z,8.60
2018-09-12T06:06:20.180Z,9.53
2018-09-12T06:08:48.355Z,9.70
2018-09-12T06:11:16.679Z,12.27
2018-09-12T06:13:45.109Z,9.23
2018-09-12T06:16:13.262Z,9.20
2018-09-12T06:18:41.417Z,11.13
2018-09-12T06:21:09.882Z,8.97
2018-09-12T06:23:38.235Z,9.37
2018-09-12T06:26:06.572Z,8.27
2018-09-12T06:28:34.746Z,10.00
2018-09-12T06:31:05.617Z,11.23
2018-09-12T06:33:34.674Z,13.20
2018-09-12T06:36:04.026Z,17.50
2018-09-12T06:38:32.296Z,10.00
2018-09-12T06:41:00.606Z,10.10
2018-09-12T06:43:28.816Z,9.57
2018-09-12T06:46:04.700Z,9.20
2018-09-12T06:48:38.791Z,7.73
2018-09-12T06:51:06.997Z,8.43
2018-09-12T06:53:35.254Z,11.28
2018-09-12T06:56:07.134Z,8.20
2018-09-12T06:58:38.849Z,12.18
2018-09-12T07:01:10.795Z,8.58
2018-09-12T07:03:40.046Z,8.30
2018-09-12T07:06:11.617Z,8.00
2018-09-12T07:08:40.378Z,10.38
2018-09-12T07:11:08.687Z,8.63
2018-09-12T07:13:43.148Z,8.35
2018-09-12T07:16:11.396Z,11.03
2018-09-12T07:18:43.252Z,9.73
2018-09-12T07:21:12.849Z,9.90
2018-09-12T07:23:44.512Z,8.25
2018-09-12T07:26:14.312Z,11.35
2018-09-12T07:28:44.128Z,9.20
2018-09-12T07:31:14.008Z,8.40
2018-09-12T07:33:45.872Z,9.05
2018-09-12T07:36:15.390Z,8.08
2018-09-12T07:38:46.890Z,9.70
2018-09-12T07:41:15.863Z,8.65
2018-09-12T07:43:44.114Z,7.78
2018-09-12T07:46:18.376Z,11.15
2018-09-12T07:48:46.568Z,10.80
2018-09-12T07:51:14.715Z,7.20
2018-09-12T07:53:50.704Z,7.83
2018-09-12T07:56:19.094Z,7.28
2018-09-12T07:58:49.167Z,8.48
2018-09-12T08:01:19.144Z,10.93
2018-09-12T08:03:47.483Z,8.23
2018-09-12T08:06:21.230Z,8.50
2018-09-12T08:08:51.414Z,7.75
2018-09-12T08:11:20.321Z,8.63
2018-09-12T08:13:52.233Z,10.40
2018-09-12T08:16:20.572Z,9.03
2018-09-12T08:18:52.225Z,8.00
2018-09-12T08:24:21.838Z,9.30
2018-09-12T08:26:52.956Z,8.63
2018-09-12T08:29:24.401Z,6.90
2018-09-12T08:31:54.165Z,7.37
2018-09-12T08:34:25.956Z,8.10
2018-09-12T08:36:55.579Z,8.73
2018-09-12T08:39:25.224Z,7.50
2018-09-12T08:41:56.293Z,8.37
2018-09-12T08:44:25.564Z,10.67
2018-09-12T08:46:57.195Z,12.23
2018-09-12T08:49:26.605Z,10.07
2018-09-12T08:51:56.903Z,9.03
2018-09-12T08:54:28.835Z,11.40
2018-09-12T08:56:57.368Z,11.23
2018-09-12T09:23:53.726Z,9.73
2018-09-12T09:26:28.336Z,10.93
2018-09-12T09:29:01.731Z,9.60
2018-09-12T09:31:33.462Z,9.73
2018-09-12T09:34:05.226Z,9.70
2018-09-12T09:36:34.240Z,7.47
2018-09-12T09:39:07.839Z,11.90
2018-09-12T09:41:36.102Z,7.73
2018-09-12T09:44:06.533Z,11.90
2018-09-12T09:46:35.876Z,8.53
2018-09-12T09:49:06.728Z,9.23
2018-09-12T09:51:37.606Z,13.27
2018-09-12T09:54:07.432Z,10.27
2018-09-12T09:56:37.125Z,9.77
2018-09-12T09:59:08.016Z,8.73
2018-09-12T10:12:40.661Z,8.00
2018-09-12T10:15:10.377Z,8.97
2018-09-12T10:21:07.014Z,7.73
2018-09-12T10:23:40.601Z,9.37
2018-09-12T10:26:12.318Z,8.97
2018-09-12T10:28:42.887Z,7.70
2018-09-12T10:31:12.558Z,6.07
2018-09-12T10:33:42.780Z,10.07
2018-09-12T10:36:13.617Z,6.77
2018-09-12T10:38:43.740Z,7.53
2018-09-12T10:41:13.023Z,6.10
2018-09-12T10:43:44.691Z,8.80
2018-09-12T10:46:16.840Z,6.27
2018-09-12T10:48:45.255Z,6.43
2018-09-12T10:51:17.123Z,8.97
2018-09-12T10:53:46.379Z,7.37
2018-09-12T10:56:17.203Z,9.00
2018-09-12T10:58:46.913Z,9.13
2018-09-12T11:01:18.973Z,6.33
2018-09-12T11:03:48.207Z,8.13
2018-09-12T11:06:18.298Z,6.40
2018-09-12T11:08:49.980Z,5.63
2018-09-12T11:11:19.584Z,5.87
2018-09-12T11:13:50.128Z,6.53
2018-09-12T11:16:20.166Z,7.10
2018-09-12T11:18:50.901Z,9.33
2018-09-12T11:21:20.709Z,5.37
2018-09-12T11:23:51.946Z,6.80
2018-09-12T11:26:21.884Z,7.87
2018-09-12T11:28:52.758Z,7.20
2018-09-12T11:31:22.206Z,5.27
2018-09-12T11:33:53.800Z,6.23
2018-09-12T11:36:23.460Z,8.67
2018-09-12T11:38:53.663Z,6.37
2018-09-12T11:41:24.908Z,6.37
2018-09-12T11:43:54.690Z,6.70
2018-09-12T11:46:24.682Z,6.63
2018-09-12T11:48:55.099Z,5.77
2018-09-12T11:51:27.111Z,5.07
2018-09-12T11:53:56.073Z,5.10
2018-09-12T11:56:27.570Z,9.13
2018-09-12T11:58:57.368Z,4.63
2018-09-12T12:01:28.685Z,4.83
2018-09-12T12:03:57.885Z,6.30
2018-09-12T12:06:26.544Z,4.17
2018-09-12T12:09:00.120Z,5.47
2018-09-12T12:11:28.442Z,5.53
2018-09-12T12:13:56.961Z,3.87
2018-09-12T12:16:25.256Z,4.90
2018-09-12T12:18:53.496Z,5.43
2018-09-12T12:21:31.392Z,3.73
2018-09-12T12:24:00.723Z,5.37
2018-09-12T12:26:32.129Z,4.00
2018-09-12T12:29:01.952Z,6.73
2018-09-12T12:31:33.514Z,7.17
2018-09-12T12:34:01.917Z,5.30
2018-09-12T12:37:04.591Z,3.93
2018-09-12T12:39:33.336Z,3.60
2018-09-12T12:42:05.352Z,4.23
2018-09-12T12:44:33.767Z,5.67
2018-09-12T12:47:05.461Z,3.50
2018-09-12T12:49:35.139Z,3.40
2018-09-12T12:52:06.354Z,5.80
2018-09-12T12:54:35.919Z,3.73
2018-09-12T12:57:07.618Z,6.63
2018-09-12T12:59:37.926Z,3.30
2018-09-12T13:02:07.080Z,5.50
2018-09-12T13:04:35.911Z,4.97
2018-09-12T13:07:08.132Z,3.47
2018-09-12T13:09:39.713Z,4.83
2018-09-12T13:12:08.492Z,5.00
2018-09-12T13:14:36.877Z,5.80
2018-09-12T13:17:10.361Z,3.57
2018-09-12T13:19:39.549Z,4.70
2018-09-12T13:22:10.813Z,5.17
2018-09-12T13:24:39.912Z,4.30
2018-09-12T13:27:08.369Z,3.83
2018-09-12T13:29:41.711Z,3.47
2018-09-12T13:32:11.580Z,4.03
2018-09-12T13:34:45.496Z,5.93
2018-09-12T13:37:13.738Z,4.67
2018-09-12T13:39:42.021Z,3.37
2018-09-12T13:42:13.890Z,3.53
2018-09-12T13:44:43.592Z,3.73
2018-09-12T13:47:15.410Z,3.57
2018-09-12T13:49:43.678Z,3.90
2018-09-12T13:52:15.518Z,5.37
2018-09-12T13:54:45.944Z,4.67
2018-09-12T13:57:16.511Z,3.77
2018-09-12T13:59:44.751Z,4.77
2018-09-12T14:02:17.005Z,4.70
2018-09-12T14:04:47.125Z,6.20
2018-09-12T14:07:15.614Z,4.00
2018-09-12T14:09:45.532Z,5.07
2018-09-12T14:12:20.354Z,3.90
2018-09-12T14:14:48.999Z,3.50
2018-09-12T14:17:20.423Z,11.47
2018-09-12T14:19:49.151Z,5.87
2018-09-12T14:22:20.742Z,6.83
2018-09-12T14:24:49.228Z,3.83
2018-09-12T14:27:17.966Z,4.33
2018-09-12T14:29:51.990Z,4.33
2018-09-12T14:32:22.661Z,3.63
2018-09-12T14:34:52.233Z,7.07
2018-09-12T14:37:22.102Z,3.73
2018-09-12T14:39:53.896Z,5.77
2018-09-12T14:42:24.379Z,4.33
2018-09-12T14:48:23.872Z,4.10
2018-09-12T15:04:40.090Z,4.00
2018-09-12T15:07:13.727Z,3.93
2018-09-12T15:24:42.808Z,5.57
2018-09-12T15:42:33.835Z,3.53
2018-09-12T15:45:03.427Z,4.27
2018-09-12T15:47:31.700Z,3.83
2018-09-12T15:49:59.916Z,4.07
2018-09-12T15:55:02.241Z,5.27
2018-09-12T15:57:36.332Z,4.40
2018-09-12T16:00:05.992Z,4.73
2018-09-12T16:02:36.070Z,4.97
2018-09-12T16:05:07.413Z,6.37
2018-09-12T16:07:37.165Z,5.13
2018-09-12T16:10:06.874Z,6.67
2018-09-12T16:12:36.154Z,4.00
2018-09-12T16:15:07.538Z,4.10
2018-09-12T16:17:39.183Z,5.47
2018-09-12T16:20:07.494Z,4.80
2018-09-12T16:22:38.715Z,4.70
2018-09-12T16:25:09.986Z,3.67
2018-09-12T16:27:40.041Z,3.40
2018-09-12T16:30:08.437Z,4.83
2018-09-12T16:32:42.102Z,4.13
2018-09-12T16:35:10.721Z,3.40
2018-09-12T16:37:38.924Z,4.20
2018-09-12T16:40:07.270Z,6.27
2018-09-12T16:42:35.451Z,5.47
2018-09-12T16:45:03.748Z,5.10
2018-09-12T16:47:31.951Z,3.63
2018-09-12T16:50:00.211Z,6.27
2018-09-12T16:52:29.461Z,3.97
2018-09-12T16:54:58.927Z,6.60
2018-09-12T16:57:42.807Z,4.60
2018-09-12T17:00:10.946Z,4.40
2018-09-12T17:02:39.068Z,3.97
2018-09-12T17:05:07.268Z,4.77
2018-09-12T17:07:35.402Z,4.87
2018-09-12T17:10:03.738Z,4.93
2018-09-12T17:12:31.923Z,5.67
2018-09-12T17:15:00.374Z,4.97
2018-09-12T17:17:28.586Z,5.30
2018-09-12T17:19:56.720Z,5.30
2018-09-12T17:22:25.038Z,5.30
2018-09-12T17:24:53.475Z,5.03
2018-09-12T17:27:21.923Z,4.13
2018-09-12T17:29:50.376Z,10.47
2018-09-12T17:32:18.559Z,5.57
2018-09-12T17:34:46.734Z,3.93
2018-09-12T17:37:15.066Z,5.87
2018-09-12T17:39:43.376Z,6.47
2018-09-12T17:42:11.599Z,5.37
2018-09-12T17:44:39.828Z,6.40
2018-09-12T17:47:08.621Z,6.17
2018-09-12T17:49:36.790Z,7.47
2018-09-12T17:52:05.301Z,6.90
2018-09-12T17:54:33.923Z,7.27
2018-09-12T17:57:02.140Z,5.53
2018-09-12T17:59:30.347Z,5.13
2018-09-12T18:01:58.661Z,6.30
2018-09-12T18:04:27.180Z,7.43
2018-09-12T18:06:56.248Z,6.43
2018-09-12T18:09:25.030Z,5.80
2018-09-12T18:11:53.324Z,4.37
2018-09-12T18:14:22.279Z,6.30
2018-09-12T18:16:50.814Z,6.17
2018-09-12T18:19:19.007Z,4.50
2018-09-12T18:21:47.247Z,7.10
2018-09-12T18:24:15.489Z,7.77
2018-09-12T18:26:43.680Z,6.53
2018-09-12T18:29:12.113Z,5.73
2018-09-12T18:31:40.274Z,6.30
2018-09-12T18:34:08.415Z,5.87
2018-09-12T18:36:36.658Z,7.13
2018-09-12T18:41:49.675Z,6.00
2018-09-12T18:44:17.833Z,6.37
2018-09-12T18:49:31.638Z,10.17
2018-09-12T18:52:00.773Z,8.30
2018-09-12T18:54:29.138Z,7.53
2018-09-12T18:57:01.003Z,7.23
2018-09-12T18:59:31.315Z,6.87
2018-09-12T19:01:59.493Z,9.83
2018-09-12T19:04:27.671Z,8.97
2018-09-12T19:06:55.953Z,7.00
2018-09-12T19:09:24.570Z,7.83
2018-09-12T19:11:53.146Z,7.27
2018-09-12T19:14:21.315Z,8.87
2018-09-12T19:16:49.443Z,6.33
2018-09-12T19:19:17.652Z,6.60
2018-09-12T19:21:46.460Z,6.20
2018-09-12T19:24:15.539Z,8.23
2018-09-12T19:26:43.847Z,7.37
2018-09-12T19:29:12.092Z,6.93
2018-09-12T19:31:40.529Z,6.83
2018-09-12T19:34:09.508Z,6.90
2018-09-12T19:36:38.694Z,8.50
2018-09-12T19:39:07.333Z,7.00
2018-09-12T19:41:35.599Z,7.33
2018-09-12T19:44:04.166Z,6.50
2018-09-12T19:46:32.342Z,5.73
2018-09-12T19:49:00.579Z,9.30
2018-09-12T19:51:28.808Z,6.70
2018-09-12T19:53:57.035Z,5.90
2018-09-12T19:56:25.295Z,8.13
2018-09-12T19:58:53.487Z,7.50
2018-09-12T20:01:21.672Z,8.77
2018-09-12T20:03:49.891Z,8.47
2018-09-12T20:06:18.241Z,6.07
2018-09-12T20:08:46.577Z,9.97
2018-09-12T20:11:14.835Z,8.40
2018-09-12T20:13:43.061Z,9.87
2018-09-12T20:16:11.544Z,7.17
2018-09-12T20:18:39.640Z,10.77
2018-09-12T20:21:07.965Z,8.17
2018-09-12T20:23:36.175Z,8.03
2018-09-12T20:26:05.457Z,7.93
2018-09-12T20:28:37.928Z,7.20
2018-09-12T20:31:06.739Z,7.77
2018-09-12T20:33:35.148Z,7.20
2018-09-12T20:36:06.684Z,8.23
2018-09-12T20:38:34.896Z,7.47
2018-09-12T20:41:03.202Z,6.40
2018-09-12T20:43:31.366Z,9.60
2018-09-12T20:45:59.931Z,6.70
2018-09-12T20:48:28.367Z,6.40
2018-09-12T20:50:57.323Z,7.33
2018-09-12T20:53:28.597Z,5.50
2018-09-12T20:55:58.150Z,7.97
2018-09-12T20:58:26.296Z,10.27
2018-09-12T21:00:54.449Z,6.17
2018-09-12T21:03:22.672Z,7.60
2018-09-12T21:05:50.987Z,7.10
2018-09-12T21:08:19.187Z,5.97
2018-09-12T21:10:47.526Z,5.10
2018-09-12T21:13:15.777Z,7.70
2018-09-12T21:15:44.028Z,5.97
2018-09-12T21:18:12.318Z,6.03
2018-09-12T21:20:40.680Z,6.47
2018-09-12T21:23:11.723Z,5.67
2018-09-12T21:25:40.281Z,6.80
2018-09-12T21:28:08.475Z,4.63
2018-09-12T21:30:36.653Z,6.03
2018-09-12T21:33:05.414Z,6.33
2018-09-12T21:35:33.680Z,9.97
2018-09-12T21:38:02.049Z,6.93
2018-09-12T21:40:30.438Z,4.97
2018-09-12T21:42:58.664Z,6.60
2018-09-12T21:45:26.993Z,4.87
2018-09-12T21:47:56.015Z,5.73
2018-09-12T21:50:24.417Z,7.80
2018-09-12T21:52:52.832Z,5.80
2018-09-12T21:55:23.914Z,6.47
2018-09-12T21:57:52.224Z,6.87
2018-09-12T22:00:20.421Z,7.60
2018-09-12T22:02:48.612Z,5.73
2018-09-12T22:05:16.825Z,6.40
2018-09-12T22:07:45.031Z,8.10
2018-09-12T22:10:13.346Z,5.90
2018-09-12T22:12:41.819Z,7.90
2018-09-12T22:15:10.234Z,9.07
2018-09-12T22:17:38.533Z,8.47
2018-09-12T22:20:06.790Z,6.70
2018-09-12T22:22:35.035Z,5.97
2018-09-12T22:25:03.290Z,6.47
2018-09-12T22:27:31.549Z,5.13
2018-09-12T22:30:00.024Z,6.23
2018-09-12T22:32:28.520Z,6.87
2018-09-12T22:34:56.685Z,5.80
2018-09-12T22:37:24.845Z,7.77
2018-09-12T22:39:53.019Z,6.63
2018-09-12T22:42:21.220Z,5.60
2018-09-12T22:44:49.500Z,7.23
2018-09-12T22:47:17.647Z,4.50
2018-09-12T22:49:45.885Z,6.30
2018-09-12T22:52:14.170Z,6.40
2018-09-12T22:54:42.510Z,7.63
2018-09-12T22:57:10.751Z,9.07
2018-09-12T22:59:39.049Z,8.67
2018-09-12T23:02:07.416Z,7.83
2018-09-12T23:04:35.615Z,7.60
2018-09-12T23:07:04.019Z,8.30
2018-09-12T23:09:32.345Z,7.50
2018-09-12T23:12:00.585Z,5.93
2018-09-12T23:14:28.859Z,7.27
2018-09-12T23:16:57.133Z,6.93
2018-09-12T23:19:25.265Z,9.13
2018-09-12T23:21:53.423Z,7.17
2018-09-12T23:24:21.647Z,8.40
2018-09-12T23:26:49.869Z,7.87
2018-09-12T23:29:18.259Z,7.80
2018-09-12T23:31:46.534Z,8.47
2018-09-12T23:34:14.723Z,6.77
2018-09-12T23:36:42.835Z,8.47
2018-09-12T23:39:13.091Z,7.47
2018-09-12T23:41:41.839Z,7.43
2018-09-12T23:44:10.681Z,10.47
2018-09-12T23:46:38.901Z,8.67
2018-09-12T23:49:07.795Z,10.47
2018-09-12T23:51:35.913Z,8.67
2018-09-12T23:54:04.241Z,10.87
2018-09-12T23:56:32.501Z,7.50
2018-09-12T23:59:00.820Z,7.70
